sensor_id;sensor_type;location;lat;lon;timestamp;pressure;altitude;pressure_sealevel;temperature;humidity
76730;BME280;65653;53.106;18.046;2023-12-20T00:01:06;99970.50;;;5.51;100.00
76730;BME280;65653;53.106;18.046;2023-12-20T00:03:41;99966.67;;;5.52;100.00
76730;BME280;65653;53.106;18.046;2023-12-20T00:06:08;99964.13;;;5.52;100.00
76730;BME280;65653;53.106;18.046;2023-12-20T00:08:34;99967.17;;;5.53;100.00
76730;BME280;65653;53.106;18.046;2023-12-20T00:11:01;99966.24;;;5.53;100.00
76730;BME280;65653;53.106;18.046;2023-12-20T00:13:27;99963.44;;;5.53;100.00
76730;BME280;65653;53.106;18.046;2023-12-20T00:15:54;99964.88;;;5.54;100.00
76730;BME280;65653;53.106;18.046;2023-12-20T00:18:20;99963.99;;;5.55;100.00
76730;BME280;65653;53.106;18.046;2023-12-20T00:20:47;99968.73;;;5.55;100.00
76730;BME280;65653;53.106;18.046;2023-12-20T00:23:14;99963.41;;;5.55;100.00
76730;BME280;65653;53.106;18.046;2023-12-20T00:25:40;99963.16;;;5.55;100.00
76730;BME280;65653;53.106;18.046;2023-12-20T00:28:07;99961.40;;;5.56;100.00
76730;BME280;65653;53.106;18.046;2023-12-20T00:30:34;99956.24;;;5.57;100.00
76730;BME280;65653;53.106;18.046;2023-12-20T00:33:00;99953.49;;;5.57;100.00
76730;BME280;65653;53.106;18.046;2023-12-20T00:35:27;99948.30;;;5.57;100.00
76730;BME280;65653;53.106;18.046;2023-12-20T00:37:54;99942.48;;;5.57;100.00
76730;BME280;65653;53.106;18.046;2023-12-20T00:40:20;99944.50;;;5.57;100.00
76730;BME280;65653;53.106;18.046;2023-12-20T00:42:47;99939.94;;;5.57;100.00
76730;BME280;65653;53.106;18.046;2023-12-20T00:45:13;99943.50;;;5.58;100.00
76730;BME280;65653;53.106;18.046;2023-12-20T00:47:40;99942.86;;;5.57;100.00
76730;BME280;65653;53.106;18.046;2023-12-20T00:50:08;99946.38;;;5.58;100.00
76730;BME280;65653;53.106;18.046;2023-12-20T00:52:35;99949.34;;;5.58;100.00
76730;BME280;65653;53.106;18.046;2023-12-20T00:55:01;99944.05;;;5.58;100.00
76730;BME280;65653;53.106;18.046;2023-12-20T00:57:28;99939.83;;;5.58;100.00
76730;BME280;65653;53.106;18.046;2023-12-20T00:59:55;99938.90;;;5.58;100.00
76730;BME280;65653;53.106;18.046;2023-12-20T01:02:21;99937.77;;;5.58;100.00
76730;BME280;65653;53.106;18.046;2023-12-20T01:04:48;99939.16;;;5.59;100.00
76730;BME280;65653;53.106;18.046;2023-12-20T01:07:14;99935.12;;;5.59;100.00
76730;BME280;65653;53.106;18.046;2023-12-20T01:13:25;99929.29;;;5.60;100.00
76730;BME280;65653;53.106;18.046;2023-12-20T01:15:51;99922.83;;;5.60;100.00
76730;BME280;65653;53.106;18.046;2023-12-20T01:18:18;99922.02;;;5.61;100.00
76730;BME280;65653;53.106;18.046;2023-12-20T01:20:44;99921.27;;;5.61;100.00
76730;BME280;65653;53.106;18.046;2023-12-20T01:23:11;99920.67;;;5.61;100.00
76730;BME280;65653;53.106;18.046;2023-12-20T01:25:37;99917.56;;;5.61;100.00
76730;BME280;65653;53.106;18.046;2023-12-20T01:28:04;99914.98;;;5.61;100.00
76730;BME280;65653;53.106;18.046;2023-12-20T01:30:30;99915.33;;;5.62;100.00
76730;BME280;65653;53.106;18.046;2023-12-20T01:32:57;99913.09;;;5.62;100.00
76730;BME280;65653;53.106;18.046;2023-12-20T01:35:24;99910.72;;;5.62;100.00
76730;BME280;65653;53.106;18.046;2023-12-20T01:40:39;99902.88;;;5.63;100.00
76730;BME280;65653;53.106;18.046;2023-12-20T01:43:09;99899.71;;;5.63;100.00
76730;BME280;65653;53.106;18.046;2023-12-20T01:45:36;99899.66;;;5.64;100.00
76730;BME280;65653;53.106;18.046;2023-12-20T01:48:05;99891.85;;;5.63;100.00
76730;BME280;65653;53.106;18.046;2023-12-20T01:50:32;99894.06;;;5.63;100.00
76730;BME280;65653;53.106;18.046;2023-12-20T01:53:02;99888.26;;;5.63;100.00
76730;BME280;65653;53.106;18.046;2023-12-20T01:55:32;99895.86;;;5.63;100.00
76730;BME280;65653;53.106;18.046;2023-12-20T01:57:59;99894.69;;;5.64;100.00
76730;BME280;65653;53.106;18.046;2023-12-20T02:00:27;99886.20;;;5.63;100.00
76730;BME280;65653;53.106;18.046;2023-12-20T02:02:55;99881.58;;;5.64;100.00
76730;BME280;65653;53.106;18.046;2023-12-20T02:05:22;99891.30;;;5.63;100.00
76730;BME280;65653;53.106;18.046;2023-12-20T02:07:48;99899.39;;;5.65;100.00
76730;BME280;65653;53.106;18.046;2023-12-20T02:10:15;99889.16;;;5.64;100.00
76730;BME280;65653;53.106;18.046;2023-12-20T02:12:42;99896.26;;;5.65;100.00
76730;BME280;65653;53.106;18.046;2023-12-20T02:15:08;99896.16;;;5.64;100.00
76730;BME280;65653;53.106;18.046;2023-12-20T02:17:36;99883.90;;;5.64;100.00
76730;BME280;65653;53.106;18.046;2023-12-20T02:20:02;99881.84;;;5.64;100.00
76730;BME280;65653;53.106;18.046;2023-12-20T02:22:29;99879.10;;;5.64;100.00
76730;BME280;65653;53.106;18.046;2023-12-20T02:24:55;99876.62;;;5.65;100.00
76730;BME280;65653;53.106;18.046;2023-12-20T02:27:23;99869.88;;;5.65;100.00
76730;BME280;65653;53.106;18.046;2023-12-20T02:29:50;99870.48;;;5.64;100.00
76730;BME280;65653;53.106;18.046;2023-12-20T02:32:17;99873.15;;;5.65;100.00
76730;BME280;65653;53.106;18.046;2023-12-20T02:34:46;99867.98;;;5.64;100.00
76730;BME280;65653;53.106;18.046;2023-12-20T02:37:13;99869.89;;;5.65;100.00
76730;BME280;65653;53.106;18.046;2023-12-20T02:39:40;99869.52;;;5.65;100.00
76730;BME280;65653;53.106;18.046;2023-12-20T02:42:06;99865.02;;;5.64;100.00
76730;BME280;65653;53.106;18.046;2023-12-20T02:44:32;99859.60;;;5.63;100.00
76730;BME280;65653;53.106;18.046;2023-12-20T02:46:59;99866.19;;;5.64;100.00
76730;BME280;65653;53.106;18.046;2023-12-20T02:49:26;99862.85;;;5.64;100.00
76730;BME280;65653;53.106;18.046;2023-12-20T02:51:52;99863.53;;;5.63;100.00
76730;BME280;65653;53.106;18.046;2023-12-20T02:54:18;99862.17;;;5.63;100.00
76730;BME280;65653;53.106;18.046;2023-12-20T02:56:45;99865.95;;;5.64;100.00
76730;BME280;65653;53.106;18.046;2023-12-20T02:59:11;99867.77;;;5.64;100.00
76730;BME280;65653;53.106;18.046;2023-12-20T03:01:45;99867.98;;;5.64;100.00
76730;BME280;65653;53.106;18.046;2023-12-20T03:04:12;99867.14;;;5.65;100.00
76730;BME280;65653;53.106;18.046;2023-12-20T03:06:38;99861.92;;;5.64;100.00
76730;BME280;65653;53.106;18.046;2023-12-20T03:09:05;99856.74;;;5.64;100.00
76730;BME280;65653;53.106;18.046;2023-12-20T03:11:32;99852.72;;;5.64;100.00
76730;BME280;65653;53.106;18.046;2023-12-20T03:13:58;99853.92;;;5.65;100.00
76730;BME280;65653;53.106;18.046;2023-12-20T03:16:25;99848.46;;;5.65;100.00
76730;BME280;65653;53.106;18.046;2023-12-20T03:18:52;99847.70;;;5.65;100.00
76730;BME280;65653;53.106;18.046;2023-12-20T03:21:18;99853.59;;;5.65;100.00
76730;BME280;65653;53.106;18.046;2023-12-20T03:23:44;99859.07;;;5.65;100.00
76730;BME280;65653;53.106;18.046;2023-12-20T03:26:11;99854.16;;;5.64;100.00
76730;BME280;65653;53.106;18.046;2023-12-20T03:28:38;99851.48;;;5.64;100.00
76730;BME280;65653;53.106;18.046;2023-12-20T03:31:04;99856.40;;;5.64;100.00
76730;BME280;65653;53.106;18.046;2023-12-20T03:33:30;99857.26;;;5.65;100.00
76730;BME280;65653;53.106;18.046;2023-12-20T03:35:57;99853.10;;;5.64;100.00
76730;BME280;65653;53.106;18.046;2023-12-20T03:38:23;99851.63;;;5.64;100.00
76730;BME280;65653;53.106;18.046;2023-12-20T03:40:50;99846.41;;;5.64;100.00
76730;BME280;65653;53.106;18.046;2023-12-20T03:43:17;99848.58;;;5.64;100.00
76730;BME280;65653;53.106;18.046;2023-12-20T03:45:43;99844.14;;;5.64;100.00
76730;BME280;65653;53.106;18.046;2023-12-20T03:48:10;99851.20;;;5.63;100.00
76730;BME280;65653;53.106;18.046;2023-12-20T03:50:36;99844.79;;;5.63;100.00
76730;BME280;65653;53.106;18.046;2023-12-20T03:53:03;99849.98;;;5.64;100.00
76730;BME280;65653;53.106;18.046;2023-12-20T03:55:30;99847.20;;;5.65;100.00
76730;BME280;65653;53.106;18.046;2023-12-20T03:57:56;99854.02;;;5.64;100.00
76730;BME280;65653;53.106;18.046;2023-12-20T04:00:23;99849.92;;;5.63;100.00
76730;BME280;65653;53.106;18.046;2023-12-20T04:02:49;99847.69;;;5.64;100.00
76730;BME280;65653;53.106;18.046;2023-12-20T04:05:16;99849.45;;;5.63;100.00
76730;BME280;65653;53.106;18.046;2023-12-20T04:07:42;99850.08;;;5.62;100.00
76730;BME280;65653;53.106;18.046;2023-12-20T04:10:10;99850.33;;;5.62;100.00
76730;BME280;65653;53.106;18.046;2023-12-20T04:12:36;99850.82;;;5.61;100.00
76730;BME280;65653;53.106;18.046;2023-12-20T04:15:03;99847.90;;;5.59;100.00
76730;BME280;65653;53.106;18.046;2023-12-20T04:17:35;99844.61;;;5.58;100.00
76730;BME280;65653;53.106;18.046;2023-12-20T04:20:02;99847.10;;;5.57;100.00
76730;BME280;65653;53.106;18.046;2023-12-20T04:22:29;99844.71;;;5.54;100.00
76730;BME280;65653;53.106;18.046;2023-12-20T04:24:55;99840.84;;;5.52;100.00
76730;BME280;65653;53.106;18.046;2023-12-20T04:27:22;99843.77;;;5.50;100.00
76730;BME280;65653;53.106;18.046;2023-12-20T04:29:48;99840.35;;;5.47;100.00
76730;BME280;65653;53.106;18.046;2023-12-20T04:32:15;99837.21;;;5.45;100.00
76730;BME280;65653;53.106;18.046;2023-12-20T04:34:41;99843.08;;;5.44;100.00
76730;BME280;65653;53.106;18.046;2023-12-20T04:37:08;99841.41;;;5.43;100.00
76730;BME280;65653;53.106;18.046;2023-12-20T04:39:34;99842.27;;;5.42;100.00
76730;BME280;65653;53.106;18.046;2023-12-20T04:42:00;99844.70;;;5.39;100.00
76730;BME280;65653;53.106;18.046;2023-12-20T04:44:27;99849.98;;;5.36;100.00
76730;BME280;65653;53.106;18.046;2023-12-20T04:46:53;99846.35;;;5.33;100.00
76730;BME280;65653;53.106;18.046;2023-12-20T04:49:20;99848.23;;;5.31;100.00
76730;BME280;65653;53.106;18.046;2023-12-20T04:51:46;99846.45;;;5.27;100.00
76730;BME280;65653;53.106;18.046;2023-12-20T04:54:13;99850.05;;;5.24;100.00
76730;BME280;65653;53.106;18.046;2023-12-20T04:56:40;99856.86;;;5.22;100.00
76730;BME280;65653;53.106;18.046;2023-12-20T04:59:06;99854.92;;;5.19;100.00
76730;BME280;65653;53.106;18.046;2023-12-20T05:01:32;99854.59;;;5.16;100.00
76730;BME280;65653;53.106;18.046;2023-12-20T05:03:59;99852.35;;;5.13;100.00
76730;BME280;65653;53.106;18.046;2023-12-20T05:06:25;99857.89;;;5.11;100.00
76730;BME280;65653;53.106;18.046;2023-12-20T05:08:52;99860.23;;;5.10;100.00
76730;BME280;65653;53.106;18.046;2023-12-20T05:11:18;99860.55;;;5.07;100.00
76730;BME280;65653;53.106;18.046;2023-12-20T05:13:45;99854.87;;;5.06;100.00
76730;BME280;65653;53.106;18.046;2023-12-20T05:16:11;99849.40;;;5.04;100.00
76730;BME280;65653;53.106;18.046;2023-12-20T05:18:40;99854.13;;;5.03;100.00
76730;BME280;65653;53.106;18.046;2023-12-20T05:21:06;99848.56;;;5.01;100.00
76730;BME280;65653;53.106;18.046;2023-12-20T05:23:33;99849.13;;;4.99;100.00
76730;BME280;65653;53.106;18.046;2023-12-20T05:25:59;99849.67;;;4.96;100.00
76730;BME280;65653;53.106;18.046;2023-12-20T05:28:26;99850.61;;;4.93;100.00
76730;BME280;65653;53.106;18.046;2023-12-20T05:30:53;99845.98;;;4.91;100.00
76730;BME280;65653;53.106;18.046;2023-12-20T05:33:20;99848.30;;;4.88;100.00
76730;BME280;65653;53.106;18.046;2023-12-20T05:35:46;99851.05;;;4.88;100.00
76730;BME280;65653;53.106;18.046;2023-12-20T05:38:13;99852.14;;;4.88;100.00
76730;BME280;65653;53.106;18.046;2023-12-20T05:40:39;99852.38;;;4.89;100.00
76730;BME280;65653;53.106;18.046;2023-12-20T05:43:06;99850.73;;;4.89;100.00
76730;BME280;65653;53.106;18.046;2023-12-20T05:45:32;99850.21;;;4.89;100.00
76730;BME280;65653;53.106;18.046;2023-12-20T05:47:59;99852.36;;;4.88;100.00
76730;BME280;65653;53.106;18.046;2023-12-20T05:50:25;99857.86;;;4.86;100.00
76730;BME280;65653;53.106;18.046;2023-12-20T05:52:52;99853.52;;;4.85;100.00
76730;BME280;65653;53.106;18.046;2023-12-20T05:55:18;99850.05;;;4.80;100.00
76730;BME280;65653;53.106;18.046;2023-12-20T05:57:44;99850.30;;;4.75;100.00
76730;BME280;65653;53.106;18.046;2023-12-20T06:00:12;99849.15;;;4.71;100.00
76730;BME280;65653;53.106;18.046;2023-12-20T06:02:39;99852.64;;;4.67;100.00
76730;BME280;65653;53.106;18.046;2023-12-20T06:05:06;99851.39;;;4.62;100.00
76730;BME280;65653;53.106;18.046;2023-12-20T06:07:33;99850.65;;;4.57;100.00
76730;BME280;65653;53.106;18.046;2023-12-20T06:09:59;99842.66;;;4.52;100.00
76730;BME280;65653;53.106;18.046;2023-12-20T06:12:25;99842.67;;;4.47;100.00
76730;BME280;65653;53.106;18.046;2023-12-20T06:14:53;99843.05;;;4.44;100.00
76730;BME280;65653;53.106;18.046;2023-12-20T06:17:20;99845.48;;;4.41;100.00
76730;BME280;65653;53.106;18.046;2023-12-20T06:19:48;99856.28;;;4.36;100.00
76730;BME280;65653;53.106;18.046;2023-12-20T06:22:15;99858.74;;;4.32;100.00
76730;BME280;65653;53.106;18.046;2023-12-20T06:24:42;99852.38;;;4.29;100.00
76730;BME280;65653;53.106;18.046;2023-12-20T06:27:09;99847.29;;;4.27;100.00
76730;BME280;65653;53.106;18.046;2023-12-20T06:29:35;99852.04;;;4.26;100.00
76730;BME280;65653;53.106;18.046;2023-12-20T06:32:02;99854.06;;;4.26;100.00
76730;BME280;65653;53.106;18.046;2023-12-20T06:34:28;99855.53;;;4.25;100.00
76730;BME280;65653;53.106;18.046;2023-12-20T06:36:55;99859.13;;;4.25;100.00
76730;BME280;65653;53.106;18.046;2023-12-20T06:39:21;99857.81;;;4.23;100.00
76730;BME280;65653;53.106;18.046;2023-12-20T06:41:50;99861.77;;;4.24;100.00
76730;BME280;65653;53.106;18.046;2023-12-20T06:44:17;99864.06;;;4.24;100.00
76730;BME280;65653;53.106;18.046;2023-12-20T06:46:44;99861.96;;;4.22;100.00
76730;BME280;65653;53.106;18.046;2023-12-20T06:49:11;99855.19;;;4.18;100.00
76730;BME280;65653;53.106;18.046;2023-12-20T06:51:38;99847.96;;;4.14;100.00
76730;BME280;65653;53.106;18.046;2023-12-20T06:54:05;99844.86;;;4.10;100.00
76730;BME280;65653;53.106;18.046;2023-12-20T06:56:33;99845.02;;;4.06;100.00
76730;BME280;65653;53.106;18.046;2023-12-20T06:58:59;99845.18;;;4.03;100.00
76730;BME280;65653;53.106;18.046;2023-12-20T07:01:27;99848.47;;;4.00;100.00
76730;BME280;65653;53.106;18.046;2023-12-20T07:03:57;99849.41;;;3.97;100.00
76730;BME280;65653;53.106;18.046;2023-12-20T07:06:24;99856.77;;;3.93;100.00
76730;BME280;65653;53.106;18.046;2023-12-20T07:08:52;99866.69;;;3.91;100.00
76730;BME280;65653;53.106;18.046;2023-12-20T07:11:19;99863.67;;;3.90;100.00
76730;BME280;65653;53.106;18.046;2023-12-20T07:13:45;99868.31;;;3.88;100.00
76730;BME280;65653;53.106;18.046;2023-12-20T07:16:14;99861.71;;;3.87;100.00
76730;BME280;65653;53.106;18.046;2023-12-20T07:18:42;99864.46;;;3.87;100.00
76730;BME280;65653;53.106;18.046;2023-12-20T07:21:08;99867.50;;;3.86;100.00
76730;BME280;65653;53.106;18.046;2023-12-20T07:23:35;99868.03;;;3.86;100.00
76730;BME280;65653;53.106;18.046;2023-12-20T07:26:01;99879.43;;;3.86;100.00
76730;BME280;65653;53.106;18.046;2023-12-20T07:28:28;99882.04;;;3.85;100.00
76730;BME280;65653;53.106;18.046;2023-12-20T07:30:55;99885.48;;;3.82;100.00
76730;BME280;65653;53.106;18.046;2023-12-20T07:33:21;99890.84;;;3.80;100.00
76730;BME280;65653;53.106;18.046;2023-12-20T07:35:48;99879.90;;;3.79;100.00
76730;BME280;65653;53.106;18.046;2023-12-20T07:38:14;99882.05;;;3.79;100.00
76730;BME280;65653;53.106;18.046;2023-12-20T07:40:41;99885.64;;;3.80;100.00
76730;BME280;65653;53.106;18.046;2023-12-20T07:43:08;99890.56;;;3.81;100.00
76730;BME280;65653;53.106;18.046;2023-12-20T07:45:34;99884.30;;;3.85;100.00
76730;BME280;65653;53.106;18.046;2023-12-20T07:48:01;99878.54;;;3.87;100.00
76730;BME280;65653;53.106;18.046;2023-12-20T07:50:27;99880.79;;;3.88;100.00
76730;BME280;65653;53.106;18.046;2023-12-20T07:52:54;99883.96;;;3.89;100.00
76730;BME280;65653;53.106;18.046;2023-12-20T07:55:21;99884.41;;;3.90;100.00
76730;BME280;65653;53.106;18.046;2023-12-20T07:57:49;99881.19;;;3.89;100.00
76730;BME280;65653;53.106;18.046;2023-12-20T08:00:16;99879.02;;;3.89;100.00
76730;BME280;65653;53.106;18.046;2023-12-20T08:02:42;99883.36;;;3.91;100.00
76730;BME280;65653;53.106;18.046;2023-12-20T08:05:09;99884.25;;;3.96;100.00
76730;BME280;65653;53.106;18.046;2023-12-20T08:07:36;99883.68;;;4.06;100.00
76730;BME280;65653;53.106;18.046;2023-12-20T08:10:03;99878.46;;;4.16;100.00
76730;BME280;65653;53.106;18.046;2023-12-20T08:12:30;99875.98;;;4.36;100.00
76730;BME280;65653;53.106;18.046;2023-12-20T08:14:57;99871.96;;;4.48;100.00
76730;BME280;65653;53.106;18.046;2023-12-20T08:17:24;99868.08;;;4.68;100.00
76730;BME280;65653;53.106;18.046;2023-12-20T08:19:51;99866.01;;;4.99;100.00
76730;BME280;65653;53.106;18.046;2023-12-20T08:22:18;99862.86;;;5.03;100.00
76730;BME280;65653;53.106;18.046;2023-12-20T08:24:44;99869.78;;;4.93;100.00
76730;BME280;65653;53.106;18.046;2023-12-20T08:27:13;99866.79;;;4.84;100.00
76730;BME280;65653;53.106;18.046;2023-12-20T08:29:40;99862.27;;;4.88;100.00
76730;BME280;65653;53.106;18.046;2023-12-20T08:32:07;99858.04;;;5.16;100.00
76730;BME280;65653;53.106;18.046;2023-12-20T08:34:34;99854.49;;;5.86;100.00
76730;BME280;65653;53.106;18.046;2023-12-20T08:37:01;99855.66;;;6.12;100.00
76730;BME280;65653;53.106;18.046;2023-12-20T08:39:27;99858.50;;;5.92;100.00
76730;BME280;65653;53.106;18.046;2023-12-20T08:41:56;99866.64;;;5.54;100.00
76730;BME280;65653;53.106;18.046;2023-12-20T08:44:23;99866.01;;;5.34;100.00
76730;BME280;65653;53.106;18.046;2023-12-20T08:46:49;99868.80;;;5.18;100.00
76730;BME280;65653;53.106;18.046;2023-12-20T08:49:16;99862.83;;;5.04;100.00
76730;BME280;65653;53.106;18.046;2023-12-20T08:51:43;99858.02;;;4.87;100.00
76730;BME280;65653;53.106;18.046;2023-12-20T08:54:10;99862.89;;;4.73;100.00
76730;BME280;65653;53.106;18.046;2023-12-20T08:56:36;99858.84;;;4.58;100.00
76730;BME280;65653;53.106;18.046;2023-12-20T08:59:03;99858.12;;;4.48;100.00
76730;BME280;65653;53.106;18.046;2023-12-20T09:01:29;99859.95;;;4.41;100.00
76730;BME280;65653;53.106;18.046;2023-12-20T09:03:56;99857.87;;;4.35;100.00
76730;BME280;65653;53.106;18.046;2023-12-20T09:06:22;99854.20;;;4.32;100.00
76730;BME280;65653;53.106;18.046;2023-12-20T09:08:49;99845.79;;;4.30;100.00
76730;BME280;65653;53.106;18.046;2023-12-20T09:11:16;99841.77;;;4.35;100.00
76730;BME280;65653;53.106;18.046;2023-12-20T09:13:44;99842.72;;;4.45;100.00
76730;BME280;65653;53.106;18.046;2023-12-20T09:16:11;99843.02;;;4.52;100.00
76730;BME280;65653;53.106;18.046;2023-12-20T09:18:39;99838.45;;;4.53;100.00
76730;BME280;65653;53.106;18.046;2023-12-20T09:21:05;99835.59;;;4.59;100.00
76730;BME280;65653;53.106;18.046;2023-12-20T09:23:32;99834.68;;;5.72;100.00
76730;BME280;65653;53.106;18.046;2023-12-20T09:25:59;99835.11;;;5.60;100.00
76730;BME280;65653;53.106;18.046;2023-12-20T09:28:25;99832.75;;;5.43;100.00
76730;BME280;65653;53.106;18.046;2023-12-20T09:30:52;99829.47;;;5.47;100.00
76730;BME280;65653;53.106;18.046;2023-12-20T09:33:19;99827.19;;;5.34;100.00
76730;BME280;65653;53.106;18.046;2023-12-20T09:35:46;99828.63;;;5.07;100.00
76730;BME280;65653;53.106;18.046;2023-12-20T09:38:13;99827.23;;;4.94;100.00
76730;BME280;65653;53.106;18.046;2023-12-20T09:40:42;99829.23;;;4.92;100.00
76730;BME280;65653;53.106;18.046;2023-12-20T09:43:17;99837.14;;;4.84;100.00
76730;BME280;65653;53.106;18.046;2023-12-20T09:45:47;99831.98;;;4.68;100.00
76730;BME280;65653;53.106;18.046;2023-12-20T09:48:18;99837.45;;;4.76;100.00
76730;BME280;65653;53.106;18.046;2023-12-20T09:50:45;99833.09;;;5.06;100.00
76730;BME280;65653;53.106;18.046;2023-12-20T09:53:15;99823.77;;;5.19;100.00
76730;BME280;65653;53.106;18.046;2023-12-20T09:55:42;99814.30;;;4.87;100.00
76730;BME280;65653;53.106;18.046;2023-12-20T09:58:09;99802.92;;;4.81;100.00
76730;BME280;65653;53.106;18.046;2023-12-20T10:00:36;99798.50;;;4.92;100.00
76730;BME280;65653;53.106;18.046;2023-12-20T10:03:09;99783.66;;;6.18;100.00
76730;BME280;65653;53.106;18.046;2023-12-20T10:05:36;99775.04;;;7.47;99.47
76730;BME280;65653;53.106;18.046;2023-12-20T10:08:02;99770.64;;;7.60;96.76
76730;BME280;65653;53.106;18.046;2023-12-20T10:10:29;99773.50;;;6.97;99.08
76730;BME280;65653;53.106;18.046;2023-12-20T10:13:11;99769.35;;;7.96;99.34
76730;BME280;65653;53.106;18.046;2023-12-20T10:15:38;99772.69;;;8.90;92.51
76730;BME280;65653;53.106;18.046;2023-12-20T10:18:05;99772.77;;;9.03;91.08
76730;BME280;65653;53.106;18.046;2023-12-20T10:20:33;99762.52;;;9.81;90.43
76730;BME280;65653;53.106;18.046;2023-12-20T10:23:00;99757.30;;;9.18;89.74
76730;BME280;65653;53.106;18.046;2023-12-20T10:25:27;99758.48;;;8.01;93.03
76730;BME280;65653;53.106;18.046;2023-12-20T10:28:12;99759.38;;;7.24;94.67
76730;BME280;65653;53.106;18.046;2023-12-20T10:30:41;99750.48;;;6.78;97.54
76730;BME280;65653;53.106;18.046;2023-12-20T10:33:08;99744.19;;;6.38;98.98
76730;BME280;65653;53.106;18.046;2023-12-20T10:35:37;99740.60;;;6.11;100.00
76730;BME280;65653;53.106;18.046;2023-12-20T10:38:05;99737.83;;;5.91;100.00
76730;BME280;65653;53.106;18.046;2023-12-20T10:40:36;99730.64;;;5.70;100.00
76730;BME280;65653;53.106;18.046;2023-12-20T10:43:03;99731.43;;;5.58;100.00
76730;BME280;65653;53.106;18.046;2023-12-20T10:45:31;99731.25;;;5.48;100.00
76730;BME280;65653;53.106;18.046;2023-12-20T10:47:58;99725.89;;;5.41;100.00
76730;BME280;65653;53.106;18.046;2023-12-20T10:50:28;99724.10;;;5.40;100.00
76730;BME280;65653;53.106;18.046;2023-12-20T10:52:55;99721.75;;;5.33;100.00
76730;BME280;65653;53.106;18.046;2023-12-20T10:55:23;99714.66;;;5.29;100.00
76730;BME280;65653;53.106;18.046;2023-12-20T10:58:00;99719.45;;;5.22;100.00
76730;BME280;65653;53.106;18.046;2023-12-20T11:00:29;99706.66;;;5.12;100.00
76730;BME280;65653;53.106;18.046;2023-12-20T11:03:00;99708.54;;;5.06;100.00
76730;BME280;65653;53.106;18.046;2023-12-20T11:05:43;99702.22;;;4.99;100.00
76730;BME280;65653;53.106;18.046;2023-12-20T11:08:16;99695.30;;;4.95;100.00
76730;BME280;65653;53.106;18.046;2023-12-20T11:11:04;99685.25;;;4.88;100.00
76730;BME280;65653;53.106;18.046;2023-12-20T11:13:37;99680.15;;;4.85;100.00
76730;BME280;65653;53.106;18.046;2023-12-20T11:16:07;99670.98;;;4.80;100.00
76730;BME280;65653;53.106;18.046;2023-12-20T11:18:34;99670.02;;;4.78;100.00
76730;BME280;65653;53.106;18.046;2023-12-20T11:21:02;99666.96;;;4.73;100.00
76730;BME280;65653;53.106;18.046;2023-12-20T11:23:30;99658.45;;;4.69;100.00
76730;BME280;65653;53.106;18.046;2023-12-20T11:26:04;99653.61;;;4.68;100.00
76730;BME280;65653;53.106;18.046;2023-12-20T11:28:31;99650.73;;;4.67;100.00
76730;BME280;65653;53.106;18.046;2023-12-20T11:30:58;99648.38;;;4.67;100.00
76730;BME280;65653;53.106;18.046;2023-12-20T11:33:30;99639.89;;;4.66;100.00
76730;BME280;65653;53.106;18.046;2023-12-20T11:36:00;99638.93;;;4.71;100.00
76730;BME280;65653;53.106;18.046;2023-12-20T11:38:27;99632.35;;;4.78;100.00
76730;BME280;65653;53.106;18.046;2023-12-20T11:40:54;99624.60;;;4.80;100.00
76730;BME280;65653;53.106;18.046;2023-12-20T11:43:39;99624.02;;;4.80;100.00
76730;BME280;65653;53.106;18.046;2023-12-20T11:46:07;99615.23;;;4.79;100.00
76730;BME280;65653;53.106;18.046;2023-12-20T11:48:38;99612.15;;;4.77;100.00
76730;BME280;65653;53.106;18.046;2023-12-20T11:51:13;99610.71;;;4.76;100.00
76730;BME280;65653;53.106;18.046;2023-12-20T11:53:40;99613.73;;;4.74;100.00
76730;BME280;65653;53.106;18.046;2023-12-20T11:56:08;99601.96;;;4.70;100.00
76730;BME280;65653;53.106;18.046;2023-12-20T11:58:36;99602.55;;;4.70;100.00
76730;BME280;65653;53.106;18.046;2023-12-20T12:01:03;99602.33;;;4.69;100.00
76730;BME280;65653;53.106;18.046;2023-12-20T12:03:30;99590.73;;;4.66;100.00
76730;BME280;65653;53.106;18.046;2023-12-20T12:05:57;99587.58;;;4.67;100.00
76730;BME280;65653;53.106;18.046;2023-12-20T12:08:25;99585.92;;;4.62;100.00
76730;BME280;65653;53.106;18.046;2023-12-20T12:10:51;99579.23;;;4.59;100.00
76730;BME280;65653;53.106;18.046;2023-12-20T12:13:18;99576.30;;;4.55;100.00
76730;BME280;65653;53.106;18.046;2023-12-20T12:15:45;99574.70;;;4.54;100.00
76730;BME280;65653;53.106;18.046;2023-12-20T12:18:16;99568.82;;;4.52;100.00
76730;BME280;65653;53.106;18.046;2023-12-20T12:20:43;99568.98;;;4.48;100.00
76730;BME280;65653;53.106;18.046;2023-12-20T12:23:11;99559.45;;;4.45;100.00
76730;BME280;65653;53.106;18.046;2023-12-20T12:25:38;99556.34;;;4.45;100.00
76730;BME280;65653;53.106;18.046;2023-12-20T12:28:05;99557.59;;;4.44;100.00
76730;BME280;65653;53.106;18.046;2023-12-20T12:30:31;99549.92;;;4.45;100.00
76730;BME280;65653;53.106;18.046;2023-12-20T12:32:58;99548.96;;;4.49;100.00
76730;BME280;65653;53.106;18.046;2023-12-20T12:35:25;99548.27;;;4.52;100.00
76730;BME280;65653;53.106;18.046;2023-12-20T12:37:52;99539.52;;;4.50;100.00
76730;BME280;65653;53.106;18.046;2023-12-20T12:40:18;99531.98;;;4.47;100.00
76730;BME280;65653;53.106;18.046;2023-12-20T12:42:47;99534.25;;;4.47;100.00
76730;BME280;65653;53.106;18.046;2023-12-20T12:45:14;99537.24;;;4.46;100.00
76730;BME280;65653;53.106;18.046;2023-12-20T12:47:42;99526.77;;;4.45;100.00
76730;BME280;65653;53.106;18.046;2023-12-20T12:50:09;99522.33;;;4.44;100.00
76730;BME280;65653;53.106;18.046;2023-12-20T12:52:35;99520.77;;;4.43;100.00
76730;BME280;65653;53.106;18.046;2023-12-20T12:55:03;99521.76;;;4.41;100.00
76730;BME280;65653;53.106;18.046;2023-12-20T12:57:31;99513.02;;;4.40;100.00